Aérodrome :
LOGIN :

S'inscrire | Disclaimer

   EN    FR    IT 

 










Légende :    VFR   VFR Marginal   IFR   IFR Intensif   IFR Très Intensif
Visi : 
Plafond : 
>= 8 km
>= 3000ft
5 à 8 km
1000 à 3000 ft
1500m à 5 km
500 à 1000 ft
800 à 1500m
200 à 500 ft
< 800m
< 200 ft
Symboles :   Orages  Brouillard  Fortes neiges  Fortes précipitations  Vent > 20 kt
SIGMETs :   Divers  Orages  Givrage  Turbulence  Onde Orograph.  Cendres Volcan.






- Altitude de l'aérodrome : 1300 ft
- Code IATA : LIG


LFBL - Limoges

DERNIER METAR :
  • 200130Z AUTO VRB02KT 1600 0750 R21/1800N R03/2200D BCFG FEW006 04/04 Q1025

METARs EXPIRÉS :
  • 200100Z AUTO 20002KT CAVOK 04/04 Q1025 TEMPO 0400 FG VV///
  • 200030Z AUTO 21002KT CAVOK 04/04 Q1025 TEMPO 0400 FG VV///
  • 200000Z AUTO 16001KT 9999 FEW007 04/04 Q1025 BECMG 3000 BR OVC003
  • 192330Z AUTO 22004KT 9999 FEW008 05/04 Q1026 TEMPO 0400 FG VV///
  • 192300Z AUTO 22003KT 9999 FEW013 05/04 Q1026 BECMG 3000 BR BKN014

TAF AMD TAF LFBL
Valide du 20 à 00h jusqu'au 21 à 00h UTC


200040Z 2000/2024 VRB02KT 9999 SCT013
BECMG 2000/2002 3000 BR OVC003
TEMPO 2002/2009 0400 FG VV///
BECMG 2004/2006 12005KT
BECMG 2009/2011 21010KT 9999 NSW BKN009
BECMG 2011/2013 CAVOK
BECMG 2017/2019 BKN012
TEMPO 2019/2024 4000 -RADZ OVC003
ATIS : +33 5 55 48 40 37



MET'MAP, la Météo Aéronautique d'un coup d'oeil ! - Copyright ORBIFLY Décembre 2007 - Disclaimer

ORBIFLY MET'MAP TEAM :

Programmation & Développement : Alexandra Zaïnal
Sur une idée originale de : Baudouin d'Aumeries
Assistance à la programmation : Marc-Olivier Méhu
Soutien technique & logistique : Manuel Goepfert

Contact : metmap@orbifly.com




SOURCES & CREDITS :

   NOAA